sensor_id;sensor_type;location;lat;lon;timestamp;temperature;humidity
1355;DHT22;671;48.972;9.276;2024-01-30T00:00:23;2.70;99.90
1355;DHT22;671;48.972;9.276;2024-01-30T00:02:49;2.70;99.90
1355;DHT22;671;48.972;9.276;2024-01-30T00:05:16;2.70;99.90
1355;DHT22;671;48.972;9.276;2024-01-30T00:07:43;2.70;99.90
1355;DHT22;671;48.972;9.276;2024-01-30T00:10:09;2.70;99.90
1355;DHT22;671;48.972;9.276;2024-01-30T00:12:36;2.70;99.90
1355;DHT22;671;48.972;9.276;2024-01-30T00:15:02;2.70;99.90
1355;DHT22;671;48.972;9.276;2024-01-30T00:17:31;2.60;99.90
1355;DHT22;671;48.972;9.276;2024-01-30T00:19:57;2.60;99.90
1355;DHT22;671;48.972;9.276;2024-01-30T00:22:23;2.60;99.90
1355;DHT22;671;48.972;9.276;2024-01-30T00:24:50;2.60;99.90
1355;DHT22;671;48.972;9.276;2024-01-30T00:27:16;2.60;99.90
1355;DHT22;671;48.972;9.276;2024-01-30T00:29:43;2.50;99.90
1355;DHT22;671;48.972;9.276;2024-01-30T00:32:09;2.50;99.90
1355;DHT22;671;48.972;9.276;2024-01-30T00:34:36;2.50;99.90
1355;DHT22;671;48.972;9.276;2024-01-30T00:37:02;2.50;99.90
1355;DHT22;671;48.972;9.276;2024-01-30T00:39:28;2.50;99.90
1355;DHT22;671;48.972;9.276;2024-01-30T00:41:55;2.50;99.90
1355;DHT22;671;48.972;9.276;2024-01-30T00:44:21;2.50;99.90
1355;DHT22;671;48.972;9.276;2024-01-30T00:46:48;2.50;99.90
1355;DHT22;671;48.972;9.276;2024-01-30T00:49:14;2.40;99.90
1355;DHT22;671;48.972;9.276;2024-01-30T00:51:41;2.40;99.90
1355;DHT22;671;48.972;9.276;2024-01-30T00:54:07;2.40;99.90
1355;DHT22;671;48.972;9.276;2024-01-30T00:56:34;2.40;99.90
1355;DHT22;671;48.972;9.276;2024-01-30T00:59:01;2.30;99.90
1355;DHT22;671;48.972;9.276;2024-01-30T01:01:27;2.30;99.90
1355;DHT22;671;48.972;9.276;2024-01-30T01:03:53;2.30;99.90
1355;DHT22;671;48.972;9.276;2024-01-30T01:06:20;2.30;99.90
1355;DHT22;671;48.972;9.276;2024-01-30T01:08:46;2.30;99.90
1355;DHT22;671;48.972;9.276;2024-01-30T01:11:13;2.30;99.90
1355;DHT22;671;48.972;9.276;2024-01-30T01:13:39;2.30;99.90
1355;DHT22;671;48.972;9.276;2024-01-30T01:16:06;2.30;99.90
1355;DHT22;671;48.972;9.276;2024-01-30T01:18:32;2.30;99.90
1355;DHT22;671;48.972;9.276;2024-01-30T01:20:59;2.30;99.90
1355;DHT22;671;48.972;9.276;2024-01-30T01:23:26;2.30;99.90
1355;DHT22;671;48.972;9.276;2024-01-30T01:25:53;2.30;99.90
1355;DHT22;671;48.972;9.276;2024-01-30T01:28:20;2.30;99.90
1355;DHT22;671;48.972;9.276;2024-01-30T01:30:46;2.30;99.90
1355;DHT22;671;48.972;9.276;2024-01-30T01:33:12;2.30;99.90
1355;DHT22;671;48.972;9.276;2024-01-30T01:35:40;2.30;99.90
1355;DHT22;671;48.972;9.276;2024-01-30T01:38:06;2.30;99.90
1355;DHT22;671;48.972;9.276;2024-01-30T01:40:33;2.20;99.90
1355;DHT22;671;48.972;9.276;2024-01-30T01:43:03;2.30;99.90
1355;DHT22;671;48.972;9.276;2024-01-30T01:45:29;2.20;99.90
1355;DHT22;671;48.972;9.276;2024-01-30T01:47:56;2.20;99.90
1355;DHT22;671;48.972;9.276;2024-01-30T01:50:23;2.20;99.90
1355;DHT22;671;48.972;9.276;2024-01-30T01:52:50;2.20;99.90
1355;DHT22;671;48.972;9.276;2024-01-30T01:55:19;2.20;99.90
1355;DHT22;671;48.972;9.276;2024-01-30T01:57:47;2.10;99.90
1355;DHT22;671;48.972;9.276;2024-01-30T02:00:14;2.10;99.90
1355;DHT22;671;48.972;9.276;2024-01-30T02:02:43;2.10;99.90
1355;DHT22;671;48.972;9.276;2024-01-30T02:05:11;2.10;99.90
1355;DHT22;671;48.972;9.276;2024-01-30T02:07:38;2.10;99.90
1355;DHT22;671;48.972;9.276;2024-01-30T02:10:05;2.10;99.90
1355;DHT22;671;48.972;9.276;2024-01-30T02:12:33;2.00;99.90
1355;DHT22;671;48.972;9.276;2024-01-30T02:15:00;2.00;99.90
1355;DHT22;671;48.972;9.276;2024-01-30T02:17:26;2.00;99.90
1355;DHT22;671;48.972;9.276;2024-01-30T02:19:52;2.00;99.90
1355;DHT22;671;48.972;9.276;2024-01-30T02:22:20;1.90;99.90
1355;DHT22;671;48.972;9.276;2024-01-30T02:24:47;1.90;99.90
1355;DHT22;671;48.972;9.276;2024-01-30T02:27:13;1.90;99.90
1355;DHT22;671;48.972;9.276;2024-01-30T02:29:40;1.90;99.90
1355;DHT22;671;48.972;9.276;2024-01-30T02:32:06;1.90;99.90
1355;DHT22;671;48.972;9.276;2024-01-30T02:34:33;1.80;99.90
1355;DHT22;671;48.972;9.276;2024-01-30T02:37:00;1.80;99.90
1355;DHT22;671;48.972;9.276;2024-01-30T02:39:27;1.70;99.90
1355;DHT22;671;48.972;9.276;2024-01-30T02:41:53;1.80;99.90
1355;DHT22;671;48.972;9.276;2024-01-30T02:44:20;1.70;99.90
1355;DHT22;671;48.972;9.276;2024-01-30T02:46:47;1.70;99.90
1355;DHT22;671;48.972;9.276;2024-01-30T02:49:13;1.70;99.90
1355;DHT22;671;48.972;9.276;2024-01-30T02:51:40;1.70;99.90
1355;DHT22;671;48.972;9.276;2024-01-30T02:54:06;1.70;99.90
1355;DHT22;671;48.972;9.276;2024-01-30T02:56:33;1.60;99.90
1355;DHT22;671;48.972;9.276;2024-01-30T02:58:59;1.70;99.90
1355;DHT22;671;48.972;9.276;2024-01-30T03:01:25;1.60;99.90
1355;DHT22;671;48.972;9.276;2024-01-30T03:03:52;1.60;99.90
1355;DHT22;671;48.972;9.276;2024-01-30T03:06:18;1.60;99.90
1355;DHT22;671;48.972;9.276;2024-01-30T03:08:46;1.60;99.90
1355;DHT22;671;48.972;9.276;2024-01-30T03:11:12;1.60;99.90
1355;DHT22;671;48.972;9.276;2024-01-30T03:13:39;1.60;99.90
1355;DHT22;671;48.972;9.276;2024-01-30T03:16:06;1.50;99.90
1355;DHT22;671;48.972;9.276;2024-01-30T03:18:32;1.50;99.90
1355;DHT22;671;48.972;9.276;2024-01-30T03:20:59;1.50;99.90
1355;DHT22;671;48.972;9.276;2024-01-30T03:23:25;1.50;99.90
1355;DHT22;671;48.972;9.276;2024-01-30T03:25:51;1.50;99.90
1355;DHT22;671;48.972;9.276;2024-01-30T03:28:18;1.50;99.90
1355;DHT22;671;48.972;9.276;2024-01-30T03:30:44;1.50;99.90
1355;DHT22;671;48.972;9.276;2024-01-30T03:33:11;1.50;99.90
1355;DHT22;671;48.972;9.276;2024-01-30T03:35:37;1.50;99.90
1355;DHT22;671;48.972;9.276;2024-01-30T03:38:03;1.50;99.90
1355;DHT22;671;48.972;9.276;2024-01-30T03:40:30;1.50;99.90
1355;DHT22;671;48.972;9.276;2024-01-30T03:42:57;1.50;99.90
1355;DHT22;671;48.972;9.276;2024-01-30T03:45:24;1.50;99.90
1355;DHT22;671;48.972;9.276;2024-01-30T03:47:50;1.50;99.90
1355;DHT22;671;48.972;9.276;2024-01-30T03:50:17;1.50;99.90
1355;DHT22;671;48.972;9.276;2024-01-30T03:52:43;1.40;99.90
1355;DHT22;671;48.972;9.276;2024-01-30T03:55:10;1.50;99.90
1355;DHT22;671;48.972;9.276;2024-01-30T03:57:36;1.40;99.90
1355;DHT22;671;48.972;9.276;2024-01-30T04:00:03;1.50;99.90
1355;DHT22;671;48.972;9.276;2024-01-30T04:02:31;1.40;99.90
1355;DHT22;671;48.972;9.276;2024-01-30T04:04:57;1.40;99.90
1355;DHT22;671;48.972;9.276;2024-01-30T04:07:25;1.40;99.90
1355;DHT22;671;48.972;9.276;2024-01-30T04:09:51;1.40;99.90
1355;DHT22;671;48.972;9.276;2024-01-30T04:12:17;1.40;99.90
1355;DHT22;671;48.972;9.276;2024-01-30T04:14:44;1.40;99.90
1355;DHT22;671;48.972;9.276;2024-01-30T04:17:10;1.40;99.90
1355;DHT22;671;48.972;9.276;2024-01-30T04:19:37;1.40;99.90
1355;DHT22;671;48.972;9.276;2024-01-30T04:22:04;1.40;99.90
1355;DHT22;671;48.972;9.276;2024-01-30T04:24:31;1.40;99.90
1355;DHT22;671;48.972;9.276;2024-01-30T04:26:57;1.40;99.90
1355;DHT22;671;48.972;9.276;2024-01-30T04:29:24;1.30;99.90
1355;DHT22;671;48.972;9.276;2024-01-30T04:31:50;1.30;99.90
1355;DHT22;671;48.972;9.276;2024-01-30T04:34:17;1.30;99.90
1355;DHT22;671;48.972;9.276;2024-01-30T04:36:44;1.30;99.90
1355;DHT22;671;48.972;9.276;2024-01-30T04:39:11;1.30;99.90
1355;DHT22;671;48.972;9.276;2024-01-30T04:41:39;1.30;99.90
1355;DHT22;671;48.972;9.276;2024-01-30T04:44:06;1.30;99.90
1355;DHT22;671;48.972;9.276;2024-01-30T04:46:33;1.20;99.90
1355;DHT22;671;48.972;9.276;2024-01-30T04:49:00;1.20;99.90
1355;DHT22;671;48.972;9.276;2024-01-30T04:51:27;1.20;99.90
1355;DHT22;671;48.972;9.276;2024-01-30T04:53:53;1.20;99.90
1355;DHT22;671;48.972;9.276;2024-01-30T04:56:20;1.20;99.90
1355;DHT22;671;48.972;9.276;2024-01-30T04:58:46;1.20;99.90
1355;DHT22;671;48.972;9.276;2024-01-30T05:01:16;1.20;99.90
1355;DHT22;671;48.972;9.276;2024-01-30T05:03:43;1.20;99.90
1355;DHT22;671;48.972;9.276;2024-01-30T05:06:09;1.20;99.90
1355;DHT22;671;48.972;9.276;2024-01-30T05:08:36;1.10;99.90
1355;DHT22;671;48.972;9.276;2024-01-30T05:11:04;1.10;99.90
1355;DHT22;671;48.972;9.276;2024-01-30T05:13:31;1.10;99.90
1355;DHT22;671;48.972;9.276;2024-01-30T05:15:57;1.10;99.90
1355;DHT22;671;48.972;9.276;2024-01-30T05:18:24;1.10;99.90
1355;DHT22;671;48.972;9.276;2024-01-30T05:20:51;1.10;99.90
1355;DHT22;671;48.972;9.276;2024-01-30T05:23:17;1.10;99.90
1355;DHT22;671;48.972;9.276;2024-01-30T05:25:43;1.10;99.90
1355;DHT22;671;48.972;9.276;2024-01-30T05:28:10;1.10;99.90
1355;DHT22;671;48.972;9.276;2024-01-30T05:30:36;1.10;99.90
1355;DHT22;671;48.972;9.276;2024-01-30T05:33:03;1.10;99.90
1355;DHT22;671;48.972;9.276;2024-01-30T05:35:30;1.00;99.90
1355;DHT22;671;48.972;9.276;2024-01-30T05:37:56;1.00;99.90
1355;DHT22;671;48.972;9.276;2024-01-30T05:40:23;1.00;99.90
1355;DHT22;671;48.972;9.276;2024-01-30T05:42:49;1.00;99.90
1355;DHT22;671;48.972;9.276;2024-01-30T05:45:16;1.00;99.90
1355;DHT22;671;48.972;9.276;2024-01-30T05:47:42;1.00;99.90
1355;DHT22;671;48.972;9.276;2024-01-30T05:50:09;1.10;99.90
1355;DHT22;671;48.972;9.276;2024-01-30T05:52:35;1.10;99.90
1355;DHT22;671;48.972;9.276;2024-01-30T05:55:02;1.10;99.90
1355;DHT22;671;48.972;9.276;2024-01-30T05:57:29;1.10;99.90
1355;DHT22;671;48.972;9.276;2024-01-30T05:59:55;1.10;99.90
1355;DHT22;671;48.972;9.276;2024-01-30T06:02:22;1.10;99.90
1355;DHT22;671;48.972;9.276;2024-01-30T06:04:48;1.10;99.90
1355;DHT22;671;48.972;9.276;2024-01-30T06:07:15;1.10;99.90
1355;DHT22;671;48.972;9.276;2024-01-30T06:09:41;1.10;99.90
1355;DHT22;671;48.972;9.276;2024-01-30T06:12:08;1.10;99.90
1355;DHT22;671;48.972;9.276;2024-01-30T06:14:34;1.10;99.90
1355;DHT22;671;48.972;9.276;2024-01-30T06:17:01;1.10;99.90
1355;DHT22;671;48.972;9.276;2024-01-30T06:19:27;1.10;99.90
1355;DHT22;671;48.972;9.276;2024-01-30T06:21:54;1.10;99.90
1355;DHT22;671;48.972;9.276;2024-01-30T06:24:20;1.10;99.90
1355;DHT22;671;48.972;9.276;2024-01-30T06:26:47;1.10;99.90
1355;DHT22;671;48.972;9.276;2024-01-30T06:29:13;1.10;99.90
1355;DHT22;671;48.972;9.276;2024-01-30T06:31:41;1.10;99.90
1355;DHT22;671;48.972;9.276;2024-01-30T06:34:10;1.10;99.90
1355;DHT22;671;48.972;9.276;2024-01-30T06:36:38;1.20;99.90
1355;DHT22;671;48.972;9.276;2024-01-30T06:39:04;1.20;99.90
1355;DHT22;671;48.972;9.276;2024-01-30T06:41:31;1.20;99.90
1355;DHT22;671;48.972;9.276;2024-01-30T06:43:58;1.20;99.90
1355;DHT22;671;48.972;9.276;2024-01-30T06:46:24;1.20;99.90
1355;DHT22;671;48.972;9.276;2024-01-30T06:48:51;1.20;99.90
1355;DHT22;671;48.972;9.276;2024-01-30T06:51:17;1.20;99.90
1355;DHT22;671;48.972;9.276;2024-01-30T06:53:44;1.20;99.90
1355;DHT22;671;48.972;9.276;2024-01-30T06:56:10;1.20;99.90
1355;DHT22;671;48.972;9.276;2024-01-30T06:58:37;1.20;99.90
1355;DHT22;671;48.972;9.276;2024-01-30T07:01:03;1.20;99.90
1355;DHT22;671;48.972;9.276;2024-01-30T07:03:30;1.20;99.90
1355;DHT22;671;48.972;9.276;2024-01-30T07:05:56;1.20;99.90
1355;DHT22;671;48.972;9.276;2024-01-30T07:08:23;1.20;99.90
1355;DHT22;671;48.972;9.276;2024-01-30T07:10:49;1.20;99.90
1355;DHT22;671;48.972;9.276;2024-01-30T07:13:16;1.20;99.90
1355;DHT22;671;48.972;9.276;2024-01-30T07:15:43;1.20;99.90
1355;DHT22;671;48.972;9.276;2024-01-30T07:18:09;1.20;99.90
1355;DHT22;671;48.972;9.276;2024-01-30T07:20:36;1.30;99.90
1355;DHT22;671;48.972;9.276;2024-01-30T07:23:02;1.30;99.90
1355;DHT22;671;48.972;9.276;2024-01-30T07:25:29;1.30;99.90
1355;DHT22;671;48.972;9.276;2024-01-30T07:27:56;1.40;99.90
1355;DHT22;671;48.972;9.276;2024-01-30T07:30:23;1.40;99.90
1355;DHT22;671;48.972;9.276;2024-01-30T07:32:50;1.40;99.90
1355;DHT22;671;48.972;9.276;2024-01-30T07:35:16;1.50;99.90
1355;DHT22;671;48.972;9.276;2024-01-30T07:37:43;1.50;99.90
1355;DHT22;671;48.972;9.276;2024-01-30T07:40:09;1.60;99.90
1355;DHT22;671;48.972;9.276;2024-01-30T07:42:36;1.60;99.90
1355;DHT22;671;48.972;9.276;2024-01-30T07:45:02;1.70;99.90
1355;DHT22;671;48.972;9.276;2024-01-30T07:47:29;1.80;99.90
1355;DHT22;671;48.972;9.276;2024-01-30T07:49:55;1.80;99.90
1355;DHT22;671;48.972;9.276;2024-01-30T07:52:22;1.90;99.90
1355;DHT22;671;48.972;9.276;2024-01-30T07:54:48;2.00;99.90
1355;DHT22;671;48.972;9.276;2024-01-30T07:57:15;2.00;99.90
1355;DHT22;671;48.972;9.276;2024-01-30T07:59:43;2.10;99.90
1355;DHT22;671;48.972;9.276;2024-01-30T08:02:13;2.20;99.90
1355;DHT22;671;48.972;9.276;2024-01-30T08:04:39;2.20;99.90
1355;DHT22;671;48.972;9.276;2024-01-30T08:07:06;2.30;99.90
1355;DHT22;671;48.972;9.276;2024-01-30T08:09:32;2.40;99.90
1355;DHT22;671;48.972;9.276;2024-01-30T08:11:59;2.40;99.90
1355;DHT22;671;48.972;9.276;2024-01-30T08:14:25;2.50;99.90
1355;DHT22;671;48.972;9.276;2024-01-30T08:16:52;2.40;99.90
1355;DHT22;671;48.972;9.276;2024-01-30T08:19:19;2.50;99.90
1355;DHT22;671;48.972;9.276;2024-01-30T08:21:45;2.50;99.90
1355;DHT22;671;48.972;9.276;2024-01-30T08:24:11;2.50;99.90
1355;DHT22;671;48.972;9.276;2024-01-30T08:26:38;2.60;99.90
1355;DHT22;671;48.972;9.276;2024-01-30T08:29:04;2.60;99.90
1355;DHT22;671;48.972;9.276;2024-01-30T08:31:31;2.70;99.90
1355;DHT22;671;48.972;9.276;2024-01-30T08:33:57;2.80;99.90
1355;DHT22;671;48.972;9.276;2024-01-30T08:36:25;2.90;99.90
1355;DHT22;671;48.972;9.276;2024-01-30T08:38:51;3.00;99.90
1355;DHT22;671;48.972;9.276;2024-01-30T08:41:18;3.10;99.90
1355;DHT22;671;48.972;9.276;2024-01-30T08:43:44;3.20;99.90
1355;DHT22;671;48.972;9.276;2024-01-30T08:46:11;3.40;99.90
1355;DHT22;671;48.972;9.276;2024-01-30T08:48:38;3.40;99.90
1355;DHT22;671;48.972;9.276;2024-01-30T08:51:04;3.60;99.90
1355;DHT22;671;48.972;9.276;2024-01-30T08:53:35;3.70;99.90
1355;DHT22;671;48.972;9.276;2024-01-30T08:56:03;3.80;99.90
1355;DHT22;671;48.972;9.276;2024-01-30T08:58:29;3.90;99.90
1355;DHT22;671;48.972;9.276;2024-01-30T09:00:56;4.00;99.90
1355;DHT22;671;48.972;9.276;2024-01-30T09:03:23;4.00;99.90
1355;DHT22;671;48.972;9.276;2024-01-30T09:05:49;4.10;99.90
1355;DHT22;671;48.972;9.276;2024-01-30T09:08:15;4.20;99.90
1355;DHT22;671;48.972;9.276;2024-01-30T09:10:42;4.20;99.90
1355;DHT22;671;48.972;9.276;2024-01-30T09:13:09;4.30;99.90
1355;DHT22;671;48.972;9.276;2024-01-30T09:15:35;4.40;99.90
1355;DHT22;671;48.972;9.276;2024-01-30T09:18:02;4.50;99.90
1355;DHT22;671;48.972;9.276;2024-01-30T09:20:28;4.50;99.90
1355;DHT22;671;48.972;9.276;2024-01-30T09:22:55;4.60;99.90
1355;DHT22;671;48.972;9.276;2024-01-30T09:25:21;4.60;99.90
1355;DHT22;671;48.972;9.276;2024-01-30T09:27:47;4.70;99.90
1355;DHT22;671;48.972;9.276;2024-01-30T09:30:14;4.80;99.90
1355;DHT22;671;48.972;9.276;2024-01-30T09:32:40;4.90;99.90
1355;DHT22;671;48.972;9.276;2024-01-30T09:35:07;5.00;99.90
1355;DHT22;671;48.972;9.276;2024-01-30T09:37:34;5.10;99.90
1355;DHT22;671;48.972;9.276;2024-01-30T09:40:01;5.20;99.90
1355;DHT22;671;48.972;9.276;2024-01-30T09:42:35;5.30;99.90
1355;DHT22;671;48.972;9.276;2024-01-30T09:45:05;5.40;99.90
1355;DHT22;671;48.972;9.276;2024-01-30T09:47:41;5.50;99.90
1355;DHT22;671;48.972;9.276;2024-01-30T09:50:09;5.70;99.90
1355;DHT22;671;48.972;9.276;2024-01-30T09:52:36;5.80;99.90
1355;DHT22;671;48.972;9.276;2024-01-30T09:55:04;6.00;99.90
1355;DHT22;671;48.972;9.276;2024-01-30T09:57:31;6.10;99.90
1355;DHT22;671;48.972;9.276;2024-01-30T09:59:57;6.30;99.90
1355;DHT22;671;48.972;9.276;2024-01-30T10:02:24;6.40;99.90
1355;DHT22;671;48.972;9.276;2024-01-30T10:04:51;6.50;99.90
1355;DHT22;671;48.972;9.276;2024-01-30T10:07:18;6.60;99.90
1355;DHT22;671;48.972;9.276;2024-01-30T10:09:46;6.80;99.90
1355;DHT22;671;48.972;9.276;2024-01-30T10:12:13;6.90;99.90
1355;DHT22;671;48.972;9.276;2024-01-30T10:14:40;7.00;99.90
1355;DHT22;671;48.972;9.276;2024-01-30T10:17:10;7.10;99.90
1355;DHT22;671;48.972;9.276;2024-01-30T10:19:37;7.20;99.90
1355;DHT22;671;48.972;9.276;2024-01-30T10:22:04;7.30;99.90
1355;DHT22;671;48.972;9.276;2024-01-30T10:24:31;7.40;99.90
1355;DHT22;671;48.972;9.276;2024-01-30T10:26:57;7.60;99.90
1355;DHT22;671;48.972;9.276;2024-01-30T10:29:25;7.60;99.90
1355;DHT22;671;48.972;9.276;2024-01-30T10:31:58;7.70;99.90
1355;DHT22;671;48.972;9.276;2024-01-30T10:34:26;7.80;99.90
1355;DHT22;671;48.972;9.276;2024-01-30T10:39:29;8.10;99.90
1355;DHT22;671;48.972;9.276;2024-01-30T10:42:03;8.10;99.90
1355;DHT22;671;48.972;9.276;2024-01-30T10:47:22;8.20;99.90
1355;DHT22;671;48.972;9.276;2024-01-30T10:49:51;8.30;99.90
1355;DHT22;671;48.972;9.276;2024-01-30T10:52:18;8.40;99.90
1355;DHT22;671;48.972;9.276;2024-01-30T10:54:47;8.50;99.90
1355;DHT22;671;48.972;9.276;2024-01-30T10:57:15;8.50;99.90
1355;DHT22;671;48.972;9.276;2024-01-30T10:59:43;8.60;99.90
1355;DHT22;671;48.972;9.276;2024-01-30T11:02:10;8.70;99.90
1355;DHT22;671;48.972;9.276;2024-01-30T11:04:38;8.80;99.90
1355;DHT22;671;48.972;9.276;2024-01-30T11:07:17;8.80;99.90
1355;DHT22;671;48.972;9.276;2024-01-30T11:09:54;8.80;99.90
1355;DHT22;671;48.972;9.276;2024-01-30T11:12:27;8.90;99.90
1355;DHT22;671;48.972;9.276;2024-01-30T11:15:08;9.00;99.90
1355;DHT22;671;48.972;9.276;2024-01-30T11:17:41;9.10;99.90
1355;DHT22;671;48.972;9.276;2024-01-30T11:20:12;9.20;99.90
1355;DHT22;671;48.972;9.276;2024-01-30T11:22:47;9.30;99.90
1355;DHT22;671;48.972;9.276;2024-01-30T11:25:15;9.40;99.90
1355;DHT22;671;48.972;9.276;2024-01-30T11:27:43;9.50;99.90
1355;DHT22;671;48.972;9.276;2024-01-30T11:30:10;9.60;99.90
1355;DHT22;671;48.972;9.276;2024-01-30T11:32:37;9.70;99.90
1355;DHT22;671;48.972;9.276;2024-01-30T11:35:05;9.70;99.90
1355;DHT22;671;48.972;9.276;2024-01-30T11:37:37;9.80;99.90
1355;DHT22;671;48.972;9.276;2024-01-30T11:40:05;9.90;99.90
1355;DHT22;671;48.972;9.276;2024-01-30T11:42:32;10.00;99.90
1355;DHT22;671;48.972;9.276;2024-01-30T11:45:00;10.10;99.90
1355;DHT22;671;48.972;9.276;2024-01-30T11:47:28;10.10;99.90
1355;DHT22;671;48.972;9.276;2024-01-30T11:49:55;10.10;99.90
1355;DHT22;671;48.972;9.276;2024-01-30T11:52:22;10.20;99.90
1355;DHT22;671;48.972;9.276;2024-01-30T11:54:48;10.30;99.90
1355;DHT22;671;48.972;9.276;2024-01-30T11:57:15;10.30;99.90
1355;DHT22;671;48.972;9.276;2024-01-30T11:59:41;10.40;99.90
1355;DHT22;671;48.972;9.276;2024-01-30T12:02:08;10.40;99.90
1355;DHT22;671;48.972;9.276;2024-01-30T12:04:34;10.50;99.90
1355;DHT22;671;48.972;9.276;2024-01-30T12:07:02;10.50;99.90
1355;DHT22;671;48.972;9.276;2024-01-30T12:09:28;10.60;99.90
1355;DHT22;671;48.972;9.276;2024-01-30T12:11:54;10.60;99.90
1355;DHT22;671;48.972;9.276;2024-01-30T12:14:22;10.60;99.90
1355;DHT22;671;48.972;9.276;2024-01-30T12:16:49;10.60;99.90
1355;DHT22;671;48.972;9.276;2024-01-30T12:19:25;10.60;99.90
1355;DHT22;671;48.972;9.276;2024-01-30T12:21:57;10.60;99.90
1355;DHT22;671;48.972;9.276;2024-01-30T12:24:28;10.60;99.90
1355;DHT22;671;48.972;9.276;2024-01-30T12:26:57;10.60;99.90
1355;DHT22;671;48.972;9.276;2024-01-30T12:29:24;10.70;99.90
1355;DHT22;671;48.972;9.276;2024-01-30T12:31:53;10.70;99.90
1355;DHT22;671;48.972;9.276;2024-01-30T12:34:21;10.70;99.90
1355;DHT22;671;48.972;9.276;2024-01-30T12:36:48;10.70;99.90
1355;DHT22;671;48.972;9.276;2024-01-30T12:39:15;10.80;99.90
1355;DHT22;671;48.972;9.276;2024-01-30T12:41:41;10.80;99.90
1355;DHT22;671;48.972;9.276;2024-01-30T12:44:08;10.90;99.90
1355;DHT22;671;48.972;9.276;2024-01-30T12:46:35;10.90;99.90
1355;DHT22;671;48.972;9.276;2024-01-30T12:49:01;10.90;99.90
1355;DHT22;671;48.972;9.276;2024-01-30T12:51:28;10.90;99.90
1355;DHT22;671;48.972;9.276;2024-01-30T12:53:54;11.00;99.90
1355;DHT22;671;48.972;9.276;2024-01-30T12:56:21;11.00;99.90
1355;DHT22;671;48.972;9.276;2024-01-30T12:58:47;11.10;99.90
1355;DHT22;671;48.972;9.276;2024-01-30T13:01:13;11.20;99.90
1355;DHT22;671;48.972;9.276;2024-01-30T13:03:40;11.20;99.90
1355;DHT22;671;48.972;9.276;2024-01-30T13:06:06;11.30;99.90
1355;DHT22;671;48.972;9.276;2024-01-30T13:08:33;11.30;99.90
1355;DHT22;671;48.972;9.276;2024-01-30T13:10:59;11.40;99.90
1355;DHT22;671;48.972;9.276;2024-01-30T13:13:26;11.50;99.90
1355;DHT22;671;48.972;9.276;2024-01-30T13:15:52;11.50;99.90
1355;DHT22;671;48.972;9.276;2024-01-30T13:18:19;11.50;99.90
1355;DHT22;671;48.972;9.276;2024-01-30T13:20:45;11.50;99.90
1355;DHT22;671;48.972;9.276;2024-01-30T13:23:12;11.60;99.90
1355;DHT22;671;48.972;9.276;2024-01-30T13:25:38;11.50;99.90
1355;DHT22;671;48.972;9.276;2024-01-30T13:28:05;11.60;99.90
1355;DHT22;671;48.972;9.276;2024-01-30T13:30:31;11.60;99.90
1355;DHT22;671;48.972;9.276;2024-01-30T13:32:57;11.70;99.90
1355;DHT22;671;48.972;9.276;2024-01-30T13:35:24;11.70;99.90
1355;DHT22;671;48.972;9.276;2024-01-30T13:37:50;11.80;99.90
1355;DHT22;671;48.972;9.276;2024-01-30T13:40:17;11.90;99.90
1355;DHT22;671;48.972;9.276;2024-01-30T13:42:43;12.00;99.90
1355;DHT22;671;48.972;9.276;2024-01-30T13:45:10;12.00;99.90
1355;DHT22;671;48.972;9.276;2024-01-30T13:47:37;12.00;99.90
1355;DHT22;671;48.972;9.276;2024-01-30T13:50:03;12.00;99.90
1355;DHT22;671;48.972;9.276;2024-01-30T13:52:30;12.00;99.90
1355;DHT22;671;48.972;9.276;2024-01-30T13:54:56;12.00;99.90
1355;DHT22;671;48.972;9.276;2024-01-30T13:57:23;12.00;99.90
1355;DHT22;671;48.972;9.276;2024-01-30T13:59:49;11.90;99.90
1355;DHT22;671;48.972;9.276;2024-01-30T14:02:16;11.90;99.90
1355;DHT22;671;48.972;9.276;2024-01-30T14:04:42;11.90;99.90
1355;DHT22;671;48.972;9.276;2024-01-30T14:07:09;11.90;99.90
1355;DHT22;671;48.972;9.276;2024-01-30T14:09:36;11.90;99.90
1355;DHT22;671;48.972;9.276;2024-01-30T14:12:02;11.90;99.90
1355;DHT22;671;48.972;9.276;2024-01-30T14:14:29;11.90;99.90
1355;DHT22;671;48.972;9.276;2024-01-30T14:16:55;11.90;99.90
1355;DHT22;671;48.972;9.276;2024-01-30T14:19:22;11.80;99.90
1355;DHT22;671;48.972;9.276;2024-01-30T14:21:48;11.80;99.90
1355;DHT22;671;48.972;9.276;2024-01-30T14:24:15;11.80;99.90
1355;DHT22;671;48.972;9.276;2024-01-30T14:26:41;11.80;99.90
1355;DHT22;671;48.972;9.276;2024-01-30T14:29:08;11.70;99.90
1355;DHT22;671;48.972;9.276;2024-01-30T14:31:34;11.70;99.90
1355;DHT22;671;48.972;9.276;2024-01-30T14:34:00;11.70;99.90
1355;DHT22;671;48.972;9.276;2024-01-30T14:36:27;11.70;99.90
1355;DHT22;671;48.972;9.276;2024-01-30T14:38:54;11.60;99.90
1355;DHT22;671;48.972;9.276;2024-01-30T14:41:21;11.60;99.90
1355;DHT22;671;48.972;9.276;2024-01-30T14:43:47;11.50;99.90
1355;DHT22;671;48.972;9.276;2024-01-30T14:46:14;11.50;99.90
1355;DHT22;671;48.972;9.276;2024-01-30T14:48:41;11.50;99.90
1355;DHT22;671;48.972;9.276;2024-01-30T14:51:07;11.40;99.90
1355;DHT22;671;48.972;9.276;2024-01-30T14:53:34;11.40;99.90
1355;DHT22;671;48.972;9.276;2024-01-30T14:56:00;11.40;99.90
1355;DHT22;671;48.972;9.276;2024-01-30T14:58:28;11.30;99.90
1355;DHT22;671;48.972;9.276;2024-01-30T15:00:55;11.30;99.90
1355;DHT22;671;48.972;9.276;2024-01-30T15:03:21;11.20;99.90
1355;DHT22;671;48.972;9.276;2024-01-30T15:05:48;11.20;99.90
1355;DHT22;671;48.972;9.276;2024-01-30T15:08:14;11.20;99.90
1355;DHT22;671;48.972;9.276;2024-01-30T15:10:41;11.10;99.90
1355;DHT22;671;48.972;9.276;2024-01-30T15:13:08;11.00;99.90
1355;DHT22;671;48.972;9.276;2024-01-30T15:15:34;11.00;99.90
1355;DHT22;671;48.972;9.276;2024-01-30T15:18:01;10.90;99.90
1355;DHT22;671;48.972;9.276;2024-01-30T15:20:27;10.90;99.90
1355;DHT22;671;48.972;9.276;2024-01-30T15:22:53;10.80;99.90
1355;DHT22;671;48.972;9.276;2024-01-30T15:25:20;10.70;99.90
1355;DHT22;671;48.972;9.276;2024-01-30T15:27:46;10.60;99.90
1355;DHT22;671;48.972;9.276;2024-01-30T15:30:13;10.60;99.90
1355;DHT22;671;48.972;9.276;2024-01-30T15:32:40;10.50;99.90
1355;DHT22;671;48.972;9.276;2024-01-30T15:35:06;10.50;99.90
1355;DHT22;671;48.972;9.276;2024-01-30T15:37:34;10.40;99.90
1355;DHT22;671;48.972;9.276;2024-01-30T15:40:00;10.40;99.90
1355;DHT22;671;48.972;9.276;2024-01-30T15:42:27;10.30;99.90
1355;DHT22;671;48.972;9.276;2024-01-30T15:44:53;10.20;99.90
1355;DHT22;671;48.972;9.276;2024-01-30T15:47:20;10.10;99.90
1355;DHT22;671;48.972;9.276;2024-01-30T15:49:46;10.00;99.90
1355;DHT22;671;48.972;9.276;2024-01-30T15:52:12;10.00;99.90
1355;DHT22;671;48.972;9.276;2024-01-30T15:54:42;9.90;99.90
1355;DHT22;671;48.972;9.276;2024-01-30T15:57:08;9.80;99.90
1355;DHT22;671;48.972;9.276;2024-01-30T15:59:35;9.80;99.90
1355;DHT22;671;48.972;9.276;2024-01-30T16:02:02;9.70;99.90
1355;DHT22;671;48.972;9.276;2024-01-30T16:04:29;9.60;99.90
1355;DHT22;671;48.972;9.276;2024-01-30T16:06:56;9.60;99.90
1355;DHT22;671;48.972;9.276;2024-01-30T16:09:25;9.50;99.90
1355;DHT22;671;48.972;9.276;2024-01-30T16:11:52;9.40;99.90
1355;DHT22;671;48.972;9.276;2024-01-30T16:14:18;9.40;99.90
1355;DHT22;671;48.972;9.276;2024-01-30T16:16:44;9.30;99.90
1355;DHT22;671;48.972;9.276;2024-01-30T16:19:11;9.20;99.90
1355;DHT22;671;48.972;9.276;2024-01-30T16:21:37;9.20;99.90
1355;DHT22;671;48.972;9.276;2024-01-30T16:24:04;9.20;99.90
1355;DHT22;671;48.972;9.276;2024-01-30T16:26:30;9.10;99.90
1355;DHT22;671;48.972;9.276;2024-01-30T16:28:57;9.10;99.90
1355;DHT22;671;48.972;9.276;2024-01-30T16:31:23;9.10;99.90